Rosiclare, Illinois
Current Conditions -  °F | °C
As of 7:35 AM on Sunday 23 Nov 2014 (Local Time) from K5M9 Reporting Station
Overcast Overcast  
Wind Chill: 53°   Ceiling: 2200
Heat Index: 53°   Visibility: 10mi
Dew Point: 44°   Wind: 10mph
Humidity: 72%   Direction: 140°SE
Pressure: 29.82"   Gusts: 17mph
Location:  37.42°N, 88.35°W
Report Text: K5M9 231335Z AUTO 14009G15KT 10SM BKN022 BKN027 OVC033 12/07 A2982 RMK AO2 T01160067
Loading
Personal Weather Stations






























Interactive Weather Map New forecast layout! Learn more

10-Day Weather Forecast

Advertisements
Track Severe Weather on mobile